sim
Sign-in with your pilot id or email,
or register
Callsign
Passwort

Schedule Details

Flight Number: DLH1730 (1)
Departure: Munich Airport (EDDM) at 10:25
Arrival: Sarajevo International Airport (LQSA) at 11:50
Route: Lufthansa Passenger Schedule. Enter filed route here before submitting Pirep.

Weather Information
Getting current METAR information for EDDM 261620Z 25021KT 9999 -RA OVC020 07/04 Q1000 NOSIG
Getting current METAR information for LQSA 261630Z VRB02KT 9999 SCT055 11/09 Q0998 NOSIG

Schedule Frequency

Route Map